Time;durP1;ratioP1;P1;durP2;ratioP2;P2;SDS_P1;SDS_P2;PMS_P1;PMS_P2;Temp;Humidity;BMP_temperature;BMP_pressure;BME280_temperature;BME280_humidity;BME280_pressure;Samples;Min_cycle;Max_cycle;Signal;HPM_P1;HPM_P2
2023/07/29 00:01:01;;;;;;;9.50;5.20;;;;;;;;;;107400;1251;61376;-80
2023/07/29 00:03:29;;;;;;;9.80;6.10;;;;;;;;;;107767;1254;61244;-80
2023/07/29 00:05:56;;;;;;;8.40;5.40;;;;;;;;;;107407;1249;61228;-80
2023/07/29 00:08:22;;;;;;;10.80;5.50;;;;;;;;;;107489;1251;61106;-80
2023/07/29 00:10:48;;;;;;;8.00;5.80;;;;;;;;;;107395;1253;61362;-80
2023/07/29 00:13:15;;;;;;;6.60;4.70;;;;;;;;;;107458;1251;61356;-80
2023/07/29 00:15:41;;;;;;;6.40;4.50;;;;;;;;;;107430;1249;61224;-80
2023/07/29 00:18:08;;;;;;;7.30;4.90;;;;;;;;;;107381;1250;61324;-80
2023/07/29 00:20:34;;;;;;;7.90;4.80;;;;;;;;;;107437;1253;61379;-80
2023/07/29 00:23:01;;;;;;;7.50;5.20;;;;;;;;;;107437;1253;61267;-80
2023/07/29 00:25:28;;;;;;;6.50;4.80;;;;;;;;;;107415;1251;61333;-80
2023/07/29 00:27:55;;;;;;;9.40;5.50;;;;;;;;;;107404;1253;61335;-80
2023/07/29 00:30:22;;;;;;;7.90;5.30;;;;;;;;;;107438;1253;61240;-80
2023/07/29 00:32:48;;;;;;;8.00;4.80;;;;;;;;;;107374;1256;61326;-80
2023/07/29 00:35:14;;;;;;;7.90;5.30;;;;;;;;;;107366;1253;61265;-80
2023/07/29 00:37:41;;;;;;;7.60;4.90;;;;;;;;;;107448;1251;61331;-80
2023/07/29 00:40:12;;;;;;;9.90;5.90;;;;;;;;;;107479;1253;61337;-80
2023/07/29 00:42:38;;;;;;;7.20;4.90;;;;;;;;;;110063;1250;61111;-80
2023/07/29 00:45:07;;;;;;;6.40;5.30;;;;;;;;;;110041;1249;59085;-80
2023/07/29 00:47:33;;;;;;;7.40;4.90;;;;;;;;;;110033;1250;59651;-81
2023/07/29 00:50:00;;;;;;;8.20;5.20;;;;;;;;;;108213;1253;61326;-80
2023/07/29 00:52:26;;;;;;;7.00;5.30;;;;;;;;;;107460;1251;61264;-80
2023/07/29 00:54:52;;;;;;;7.00;5.80;;;;;;;;;;107508;1251;61344;-80
2023/07/29 00:57:19;;;;;;;8.30;5.70;;;;;;;;;;107480;1251;61320;-80
2023/07/29 00:59:45;;;;;;;13.80;5.60;;;;;;;;;;107403;1253;61247;-80
2023/07/29 01:02:12;;;;;;;6.20;4.90;;;;;;;;;;107518;1252;61353;-81
2023/07/29 01:04:38;;;;;;;7.90;4.80;;;;;;;;;;107451;1250;61206;-80
2023/07/29 01:07:14;;;;;;;8.40;4.30;;;;;;;;;;107472;1253;61273;-80
2023/07/29 01:09:43;;;;;;;7.10;5.00;;;;;;;;;;107499;1249;61218;-80
2023/07/29 01:12:23;;;;;;;7.20;4.90;;;;;;;;;;107575;1251;61296;-80
2023/07/29 01:14:55;;;;;;;8.60;5.80;;;;;;;;;;107577;1251;61344;-80
2023/07/29 01:17:22;;;;;;;10.90;5.60;;;;;;;;;;107471;1251;60201;-80
2023/07/29 01:20:05;;;;;;;7.90;5.40;;;;;;;;;;107607;1253;59356;-80
2023/07/29 01:22:32;;;;;;;6.70;4.90;;;;;;;;;;107470;1251;61276;-80
2023/07/29 01:24:59;;;;;;;6.70;4.70;;;;;;;;;;107543;1251;61216;-80
2023/07/29 01:27:26;;;;;;;7.50;5.30;;;;;;;;;;110041;1249;59130;-81
2023/07/29 01:29:52;;;;;;;9.00;4.60;;;;;;;;;;110053;1251;59147;-81
2023/07/29 01:32:31;;;;;;;7.60;4.40;;;;;;;;;;108354;1251;60133;-80
2023/07/29 01:35:07;;;;;;;9.80;5.00;;;;;;;;;;107513;1250;61260;-80
2023/07/29 01:37:33;;;;;;;5.90;4.00;;;;;;;;;;107441;1253;61278;-80
2023/07/29 01:40:00;;;;;;;6.80;4.50;;;;;;;;;;107492;1251;61135;-80
2023/07/29 01:42:26;;;;;;;8.40;3.80;;;;;;;;;;107356;1251;61276;-80
2023/07/29 01:44:53;;;;;;;6.60;4.30;;;;;;;;;;107417;1251;61235;-80
2023/07/29 01:47:20;;;;;;;6.10;4.50;;;;;;;;;;107421;1250;61230;-80
2023/07/29 01:49:46;;;;;;;6.40;4.00;;;;;;;;;;107339;1251;61288;-80
2023/07/29 01:52:13;;;;;;;9.00;4.50;;;;;;;;;;107413;1250;61223;-80
2023/07/29 01:54:39;;;;;;;11.20;4.60;;;;;;;;;;107406;1251;61270;-80
2023/07/29 01:57:05;;;;;;;6.20;4.40;;;;;;;;;;107399;1251;61222;-80
2023/07/29 01:59:32;;;;;;;6.10;4.40;;;;;;;;;;107443;1253;61170;-80
2023/07/29 02:01:58;;;;;;;6.20;4.70;;;;;;;;;;107352;1251;61833;-80
2023/07/29 02:04:24;;;;;;;7.20;4.00;;;;;;;;;;107385;1251;61360;-80
2023/07/29 02:06:51;;;;;;;7.10;4.90;;;;;;;;;;107433;1251;61086;-80
2023/07/29 02:09:17;;;;;;;5.70;4.50;;;;;;;;;;107399;1251;61242;-80
2023/07/29 02:11:43;;;;;;;5.70;5.00;;;;;;;;;;107370;1254;61288;-80
2023/07/29 02:14:10;;;;;;;6.80;4.60;;;;;;;;;;107347;1251;61239;-80
2023/07/29 02:16:37;;;;;;;8.70;4.50;;;;;;;;;;107349;1251;59832;-80
2023/07/29 02:19:03;;;;;;;9.10;4.40;;;;;;;;;;107406;1250;61280;-80
2023/07/29 02:21:30;;;;;;;6.30;4.10;;;;;;;;;;107436;1251;61274;-80
2023/07/29 02:23:56;;;;;;;5.10;3.90;;;;;;;;;;107447;1250;61310;-80
2023/07/29 02:26:23;;;;;;;5.70;4.40;;;;;;;;;;107438;1251;61263;-80
2023/07/29 02:28:49;;;;;;;8.00;4.90;;;;;;;;;;107424;1251;61346;-80
2023/07/29 02:31:23;;;;;;;7.50;5.00;;;;;;;;;;107404;1250;61262;-80
2023/07/29 02:33:50;;;;;;;7.90;4.60;;;;;;;;;;107377;1249;61094;-80
2023/07/29 02:36:17;;;;;;;5.50;4.10;;;;;;;;;;107412;1253;61171;-80
2023/07/29 02:38:43;;;;;;;5.20;3.80;;;;;;;;;;107367;1251;61270;-80
2023/07/29 02:41:11;;;;;;;11.10;4.20;;;;;;;;;;107395;1251;61227;-80
2023/07/29 02:43:40;;;;;;;6.10;4.20;;;;;;;;;;107460;1251;61302;-80
2023/07/29 02:46:07;;;;;;;4.80;3.50;;;;;;;;;;107439;1251;61187;-80
2023/07/29 02:48:33;;;;;;;8.40;4.00;;;;;;;;;;107441;1251;60613;-80
2023/07/29 02:51:00;;;;;;;8.10;4.40;;;;;;;;;;107456;1253;61272;-80
2023/07/29 02:53:26;;;;;;;7.50;4.70;;;;;;;;;;107494;1251;61259;-80
2023/07/29 02:55:52;;;;;;;5.80;4.40;;;;;;;;;;107414;1251;61297;-80
2023/07/29 02:58:19;;;;;;;5.30;3.90;;;;;;;;;;107446;1251;61384;-80
2023/07/29 03:00:47;;;;;;;7.10;4.00;;;;;;;;;;107490;1250;61352;-81
2023/07/29 03:03:14;;;;;;;5.90;4.00;;;;;;;;;;107404;1250;61273;-80
2023/07/29 03:05:40;;;;;;;6.80;4.20;;;;;;;;;;107427;1249;61260;-80
2023/07/29 03:08:06;;;;;;;6.10;3.80;;;;;;;;;;107442;1251;59859;-80
2023/07/29 03:10:34;;;;;;;7.10;4.00;;;;;;;;;;107420;1251;61224;-80
2023/07/29 03:13:01;;;;;;;5.40;4.10;;;;;;;;;;107329;1249;61247;-80
2023/07/29 03:15:27;;;;;;;7.50;3.80;;;;;;;;;;107398;1254;61478;-80
2023/07/29 03:17:53;;;;;;;5.10;3.70;;;;;;;;;;107382;1253;61794;-80
2023/07/29 03:20:20;;;;;;;5.10;3.70;;;;;;;;;;107472;1251;61360;-80
2023/07/29 03:22:46;;;;;;;7.50;4.10;;;;;;;;;;107470;1250;61397;-80
2023/07/29 03:25:13;;;;;;;6.70;4.30;;;;;;;;;;107380;1250;61207;-80
2023/07/29 03:27:39;;;;;;;7.00;3.90;;;;;;;;;;107370;1249;61384;-80
2023/07/29 03:30:07;;;;;;;9.30;5.00;;;;;;;;;;107356;1250;61280;-80
2023/07/29 03:32:33;;;;;;;10.20;4.40;;;;;;;;;;107463;1252;61093;-80
2023/07/29 03:34:59;;;;;;;7.40;4.10;;;;;;;;;;107401;1254;61335;-80
2023/07/29 03:37:26;;;;;;;6.60;4.20;;;;;;;;;;107359;1249;61174;-80
2023/07/29 03:39:52;;;;;;;6.90;4.30;;;;;;;;;;107394;1253;61355;-81
2023/07/29 03:42:19;;;;;;;7.10;4.90;;;;;;;;;;107518;1251;61241;-80
2023/07/29 03:44:45;;;;;;;8.10;4.50;;;;;;;;;;107529;1250;61254;-80
2023/07/29 03:47:12;;;;;;;5.70;3.60;;;;;;;;;;107497;1249;61211;-80
2023/07/29 03:49:38;;;;;;;8.00;3.70;;;;;;;;;;107470;1249;61198;-80
2023/07/29 03:52:05;;;;;;;7.20;4.30;;;;;;;;;;110062;1249;58841;-80
2023/07/29 03:54:31;;;;;;;7.90;4.30;;;;;;;;;;110066;1249;59220;-81
2023/07/29 03:56:58;;;;;;;12.10;4.30;;;;;;;;;;110102;1249;59212;-81
2023/07/29 03:59:24;;;;;;;5.30;4.20;;;;;;;;;;110090;1249;58941;-81
2023/07/29 04:01:51;;;;;;;6.60;4.30;;;;;;;;;;108399;1249;61217;-81
2023/07/29 04:04:18;;;;;;;10.30;4.40;;;;;;;;;;107472;1252;61215;-80
2023/07/29 04:06:44;;;;;;;4.90;3.90;;;;;;;;;;107528;1250;61205;-80
2023/07/29 04:09:10;;;;;;;7.20;4.30;;;;;;;;;;107513;1249;61138;-80
2023/07/29 04:11:37;;;;;;;7.20;4.60;;;;;;;;;;107470;1252;61339;-80
2023/07/29 04:14:03;;;;;;;15.80;5.40;;;;;;;;;;107520;1249;61243;-81
2023/07/29 04:16:29;;;;;;;8.40;4.40;;;;;;;;;;107438;1249;61256;-80
2023/07/29 04:18:56;;;;;;;6.80;4.20;;;;;;;;;;107505;1250;61336;-80
2023/07/29 04:21:22;;;;;;;8.30;5.00;;;;;;;;;;107505;1249;61327;-80
2023/07/29 04:23:48;;;;;;;9.90;4.20;;;;;;;;;;107500;1253;61193;-80
2023/07/29 04:26:15;;;;;;;7.50;4.70;;;;;;;;;;107427;1249;62287;-80
2023/07/29 04:28:42;;;;;;;10.10;4.50;;;;;;;;;;107508;1248;61336;-80
2023/07/29 04:31:09;;;;;;;8.80;5.20;;;;;;;;;;107372;1253;61080;-80
2023/07/29 04:33:35;;;;;;;6.60;5.10;;;;;;;;;;107529;1250;61270;-80
2023/07/29 04:36:02;;;;;;;6.20;4.90;;;;;;;;;;107450;1250;61412;-80
2023/07/29 04:38:31;;;;;;;7.70;4.50;;;;;;;;;;107465;1249;61246;-80
2023/07/29 04:41:00;;;;;;;7.70;4.40;;;;;;;;;;107431;1250;61251;-80
2023/07/29 04:43:28;;;;;;;7.60;4.90;;;;;;;;;;107414;1250;61341;-80
2023/07/29 04:45:54;;;;;;;10.00;4.50;;;;;;;;;;107356;1250;61101;-80
2023/07/29 04:48:21;;;;;;;7.90;4.80;;;;;;;;;;107364;1251;61317;-80
2023/07/29 04:50:47;;;;;;;5.90;4.50;;;;;;;;;;107409;1249;61245;-80
2023/07/29 04:53:13;;;;;;;8.60;4.40;;;;;;;;;;107631;1250;61719;-81
2023/07/29 04:55:43;;;;;;;6.10;4.50;;;;;;;;;;107360;1250;61338;-80
2023/07/29 04:58:09;;;;;;;8.60;4.70;;;;;;;;;;107388;1250;61274;-80
2023/07/29 05:00:36;;;;;;;5.50;3.60;;;;;;;;;;107384;1253;61260;-81
2023/07/29 05:03:02;;;;;;;4.60;3.50;;;;;;;;;;108626;1250;61127;-81
2023/07/29 05:05:29;;;;;;;6.40;4.20;;;;;;;;;;107375;1252;61160;-80
2023/07/29 05:07:55;;;;;;;8.60;4.10;;;;;;;;;;107314;1250;61290;-80
2023/07/29 05:10:21;;;;;;;5.60;3.70;;;;;;;;;;107338;1250;59876;-80
2023/07/29 05:12:48;;;;;;;10.40;4.50;;;;;;;;;;107384;1250;61866;-80
2023/07/29 05:15:14;;;;;;;6.80;3.80;;;;;;;;;;107299;1252;61227;-81
2023/07/29 05:17:41;;;;;;;14.20;4.60;;;;;;;;;;107406;1251;61314;-80
2023/07/29 05:20:08;;;;;;;6.10;4.30;;;;;;;;;;107299;1249;61243;-80
2023/07/29 05:22:34;;;;;;;5.00;4.20;;;;;;;;;;107319;1251;61238;-80
2023/07/29 05:25:00;;;;;;;6.30;3.60;;;;;;;;;;107396;1249;61294;-80
2023/07/29 05:27:27;;;;;;;5.20;3.40;;;;;;;;;;107402;1250;61269;-80
2023/07/29 05:29:53;;;;;;;7.60;4.50;;;;;;;;;;107259;1250;61225;-80
2023/07/29 05:32:19;;;;;;;6.40;3.30;;;;;;;;;;107354;1250;61299;-80
2023/07/29 05:34:46;;;;;;;8.60;3.50;;;;;;;;;;107323;1249;61222;-81
2023/07/29 05:37:12;;;;;;;13.40;4.30;;;;;;;;;;107285;1251;61210;-81
2023/07/29 05:39:39;;;;;;;6.00;3.90;;;;;;;;;;107341;1249;61356;-81
2023/07/29 05:42:05;;;;;;;6.70;3.40;;;;;;;;;;107367;1251;61317;-80
2023/07/29 05:44:32;;;;;;;7.40;4.40;;;;;;;;;;107389;1248;61227;-80
2023/07/29 05:46:58;;;;;;;6.20;3.40;;;;;;;;;;108053;1249;60195;-81
2023/07/29 05:49:24;;;;;;;7.40;3.40;;;;;;;;;;108094;1249;58922;-81
2023/07/29 05:51:52;;;;;;;5.00;3.40;;;;;;;;;;107832;1250;61095;-81
2023/07/29 05:54:19;;;;;;;4.50;3.20;;;;;;;;;;107777;1249;60224;-81
2023/07/29 05:56:46;;;;;;;3.40;3.00;;;;;;;;;;107373;1249;61263;-81
2023/07/29 05:59:12;;;;;;;10.10;3.80;;;;;;;;;;108064;1249;59276;-81
2023/07/29 06:01:38;;;;;;;4.60;3.40;;;;;;;;;;108272;1249;23048;-81
2023/07/29 06:04:05;;;;;;;5.80;4.00;;;;;;;;;;108267;1250;23793;-81
2023/07/29 06:06:31;;;;;;;7.20;3.80;;;;;;;;;;108301;1249;26393;-81
2023/07/29 06:08:58;;;;;;;5.30;4.00;;;;;;;;;;108239;1249;24417;-81
2023/07/29 06:11:24;;;;;;;5.60;3.50;;;;;;;;;;108542;1248;22545;-81
2023/07/29 06:13:51;;;;;;;4.00;3.30;;;;;;;;;;108317;1250;23258;-81
2023/07/29 06:16:17;;;;;;;7.90;3.50;;;;;;;;;;108266;1250;22540;-81
2023/07/29 06:18:43;;;;;;;4.30;3.40;;;;;;;;;;107795;1250;61325;-81
2023/07/29 06:21:12;;;;;;;6.20;3.60;;;;;;;;;;107650;1249;59483;-81
2023/07/29 06:23:39;;;;;;;5.20;3.30;;;;;;;;;;108023;1249;60963;-81
2023/07/29 06:26:06;;;;;;;5.40;4.00;;;;;;;;;;108287;1252;23241;-81
2023/07/29 06:28:33;;;;;;;6.50;4.20;;;;;;;;;;107700;1251;61168;-81
2023/07/29 06:31:00;;;;;;;7.10;4.00;;;;;;;;;;107313;1252;61362;-81
2023/07/29 06:33:26;;;;;;;4.90;3.40;;;;;;;;;;107370;1249;61243;-81
2023/07/29 06:35:52;;;;;;;7.90;3.70;;;;;;;;;;107359;1248;60246;-81
2023/07/29 06:38:21;;;;;;;4.50;3.20;;;;;;;;;;108493;1249;59099;-81
2023/07/29 06:40:48;;;;;;;7.10;4.20;;;;;;;;;;108190;1249;23014;-81
2023/07/29 06:43:15;;;;;;;7.40;3.70;;;;;;;;;;108173;1249;24344;-81
2023/07/29 06:45:41;;;;;;;5.60;4.70;;;;;;;;;;107789;1251;61156;-81
2023/07/29 06:48:07;;;;;;;9.20;4.20;;;;;;;;;;107283;1249;61110;-81
2023/07/29 06:50:34;;;;;;;8.50;6.70;;;;;;;;;;107294;1253;61220;-81
2023/07/29 06:53:00;;;;;;;5.40;3.10;;;;;;;;;;107350;1250;61330;-81
2023/07/29 06:55:26;;;;;;;5.40;3.30;;;;;;;;;;107344;1253;61397;-82
2023/07/29 06:57:53;;;;;;;3.80;2.50;;;;;;;;;;107336;1250;61297;-82
2023/07/29 07:00:19;;;;;;;5.30;2.80;;;;;;;;;;107295;1250;61369;-81
2023/07/29 07:02:45;;;;;;;5.80;3.30;;;;;;;;;;107298;1250;61397;-81
2023/07/29 07:05:12;;;;;;;3.60;2.90;;;;;;;;;;107406;1254;61238;-81
2023/07/29 07:07:38;;;;;;;4.80;2.80;;;;;;;;;;107446;1249;61281;-81
2023/07/29 07:10:05;;;;;;;4.30;3.30;;;;;;;;;;107218;1250;150956;-81
2023/07/29 07:12:31;;;;;;;6.80;3.30;;;;;;;;;;107308;1250;59564;-81
2023/07/29 07:14:58;;;;;;;4.40;2.50;;;;;;;;;;107320;1250;61356;-81
2023/07/29 07:17:24;;;;;;;4.30;2.50;;;;;;;;;;107296;1249;61428;-81
2023/07/29 07:19:51;;;;;;;4.30;2.60;;;;;;;;;;107327;1250;61218;-81
2023/07/29 07:22:17;;;;;;;3.30;2.70;;;;;;;;;;107287;1250;61405;-81
2023/07/29 07:24:44;;;;;;;4.30;2.60;;;;;;;;;;107340;1249;61147;-81
2023/07/29 07:27:10;;;;;;;3.60;2.50;;;;;;;;;;107357;1249;61248;-81
2023/07/29 07:29:37;;;;;;;3.30;2.20;;;;;;;;;;107267;1250;61247;-81
2023/07/29 07:32:04;;;;;;;5.70;2.50;;;;;;;;;;107486;1250;61264;-81
2023/07/29 07:34:30;;;;;;;6.60;2.80;;;;;;;;;;107242;1252;61195;-81
2023/07/29 07:36:57;;;;;;;5.40;2.40;;;;;;;;;;107309;1253;61353;-82
2023/07/29 07:39:23;;;;;;;3.10;2.40;;;;;;;;;;107265;1249;61271;-81
2023/07/29 07:41:49;;;;;;;7.00;2.30;;;;;;;;;;107319;1250;61379;-82
2023/07/29 07:44:17;;;;;;;4.70;1.60;;;;;;;;;;107286;1250;61128;-82
2023/07/29 07:46:44;;;;;;;2.90;1.80;;;;;;;;;;107326;1252;61225;-82
2023/07/29 07:49:12;;;;;;;3.00;1.80;;;;;;;;;;107370;1253;59145;-82
2023/07/29 07:51:39;;;;;;;2.10;1.50;;;;;;;;;;107331;1249;61147;-82
2023/07/29 07:54:05;;;;;;;9.40;2.10;;;;;;;;;;107320;1249;61266;-82
2023/07/29 07:56:31;;;;;;;8.80;2.00;;;;;;;;;;107346;1249;61278;-82
2023/07/29 07:58:58;;;;;;;2.40;1.60;;;;;;;;;;107341;1251;61245;-82
2023/07/29 08:01:24;;;;;;;2.80;1.20;;;;;;;;;;107351;1252;61320;-82
2023/07/29 08:03:50;;;;;;;3.80;1.70;;;;;;;;;;107355;1250;61218;-83
2023/07/29 08:06:17;;;;;;;2.80;1.80;;;;;;;;;;107357;1252;61323;-83
2023/07/29 08:08:43;;;;;;;2.30;1.80;;;;;;;;;;107408;1250;60885;-82
2023/07/29 08:11:09;;;;;;;3.10;1.80;;;;;;;;;;107335;1253;61938;-82
2023/07/29 08:13:36;;;;;;;2.90;1.80;;;;;;;;;;107313;1250;59828;-82
2023/07/29 08:16:02;;;;;;;21.50;19.30;;;;;;;;;;107406;1250;61233;-82
2023/07/29 08:18:28;;;;;;;4.60;2.10;;;;;;;;;;107326;1253;61305;-83
2023/07/29 08:20:57;;;;;;;3.20;1.70;;;;;;;;;;107321;1251;61389;-82
2023/07/29 08:23:27;;;;;;;2.50;2.10;;;;;;;;;;107854;1253;59504;-82
2023/07/29 08:25:54;;;;;;;2.50;1.70;;;;;;;;;;107441;1250;61273;-82
2023/07/29 08:28:21;;;;;;;2.30;1.70;;;;;;;;;;107369;1249;61193;-82
2023/07/29 08:30:47;;;;;;;2.60;2.00;;;;;;;;;;107340;1250;61224;-81
2023/07/29 08:33:13;;;;;;;11.20;2.40;;;;;;;;;;107281;1250;61295;-82
2023/07/29 08:35:40;;;;;;;3.90;1.70;;;;;;;;;;107347;1253;61241;-82
2023/07/29 08:38:06;;;;;;;8.20;1.70;;;;;;;;;;107282;1250;61322;-83
2023/07/29 08:40:34;;;;;;;3.60;1.70;;;;;;;;;;107371;1251;61213;-82
2023/07/29 08:43:03;;;;;;;12.50;6.90;;;;;;;;;;107341;1254;61166;-82
2023/07/29 08:45:30;;;;;;;10.50;7.60;;;;;;;;;;107361;1249;61376;-82
2023/07/29 08:47:57;;;;;;;12.00;8.60;;;;;;;;;;107283;1250;61074;-81
2023/07/29 08:50:24;;;;;;;10.40;6.50;;;;;;;;;;107326;1251;61189;-82
2023/07/29 08:52:51;;;;;;;39.60;29.80;;;;;;;;;;107365;1250;61128;-82
2023/07/29 08:55:18;;;;;;;9.30;6.80;;;;;;;;;;107370;1251;61089;-81
2023/07/29 08:57:45;;;;;;;6.50;4.70;;;;;;;;;;107306;1250;61219;-82
2023/07/29 09:00:11;;;;;;;5.30;2.90;;;;;;;;;;107343;1250;61280;-82
2023/07/29 09:02:37;;;;;;;6.10;3.50;;;;;;;;;;107387;1253;59597;-81
2023/07/29 09:05:05;;;;;;;14.60;5.30;;;;;;;;;;107332;1250;61271;-81
2023/07/29 09:07:31;;;;;;;6.30;2.60;;;;;;;;;;107379;1249;60254;-82
2023/07/29 09:09:57;;;;;;;4.00;2.30;;;;;;;;;;107348;1250;61418;-82
2023/07/29 09:12:24;;;;;;;3.70;1.90;;;;;;;;;;107368;1253;61335;-82
2023/07/29 09:14:54;;;;;;;4.20;2.40;;;;;;;;;;107327;1250;61388;-81
2023/07/29 09:17:23;;;;;;;5.70;3.30;;;;;;;;;;107313;1251;61237;-81
2023/07/29 09:19:50;;;;;;;4.50;2.90;;;;;;;;;;107475;1250;61199;-81
2023/07/29 09:22:19;;;;;;;3.30;1.90;;;;;;;;;;107344;1249;61211;-81
2023/07/29 09:24:46;;;;;;;2.70;2.00;;;;;;;;;;107376;1249;61147;-82
2023/07/29 09:27:38;;;;;;;2.70;1.80;;;;;;;;;;107331;1250;61152;-81
2023/07/29 09:30:05;;;;;;;4.20;1.70;;;;;;;;;;107444;1250;61183;-82
2023/07/29 09:32:31;;;;;;;3.50;2.50;;;;;;;;;;107352;1253;63395;-82
2023/07/29 09:34:57;;;;;;;4.00;3.00;;;;;;;;;;107382;1253;61447;-83
2023/07/29 09:37:24;;;;;;;4.60;2.70;;;;;;;;;;107399;1249;61228;-82
2023/07/29 09:39:50;;;;;;;2.70;2.30;;;;;;;;;;107400;1250;61267;-82
2023/07/29 09:42:18;;;;;;;2.20;1.80;;;;;;;;;;107419;1250;61265;-82
2023/07/29 09:44:45;;;;;;;2.60;1.90;;;;;;;;;;107458;1252;61108;-82
2023/07/29 09:47:21;;;;;;;3.90;1.40;;;;;;;;;;107444;1250;61874;-82
2023/07/29 09:49:47;;;;;;;2.00;1.40;;;;;;;;;;107487;1250;61259;-82
2023/07/29 09:52:15;;;;;;;1.90;1.50;;;;;;;;;;107444;1250;61206;-82
2023/07/29 09:54:42;;;;;;;2.00;1.60;;;;;;;;;;107422;1249;61216;-80
2023/07/29 09:57:09;;;;;;;2.30;1.50;;;;;;;;;;107342;1249;61245;-81
2023/07/29 09:59:35;;;;;;;2.50;1.70;;;;;;;;;;107368;1249;61229;-81
2023/07/29 10:02:02;;;;;;;2.00;1.50;;;;;;;;;;107342;1250;61379;-81
2023/07/29 10:04:28;;;;;;;2.00;1.30;;;;;;;;;;107391;1251;61192;-81
2023/07/29 10:06:55;;;;;;;3.00;1.40;;;;;;;;;;107362;1249;61247;-81
2023/07/29 10:09:21;;;;;;;5.90;1.70;;;;;;;;;;107366;1253;62330;-81
2023/07/29 10:11:47;;;;;;;2.20;1.70;;;;;;;;;;107293;1253;61240;-81
2023/07/29 10:14:14;;;;;;;4.30;1.50;;;;;;;;;;107370;1254;61218;-81
2023/07/29 10:16:45;;;;;;;12.10;8.80;;;;;;;;;;107366;1254;61298;-80
2023/07/29 10:19:14;;;;;;;10.20;5.80;;;;;;;;;;107378;1250;61346;-80
2023/07/29 10:21:40;;;;;;;2.70;1.90;;;;;;;;;;107393;1253;61254;-80
2023/07/29 10:24:12;;;;;;;6.40;2.20;;;;;;;;;;107418;1251;61354;-81
2023/07/29 10:26:38;;;;;;;4.80;1.70;;;;;;;;;;107391;1253;61211;-81
2023/07/29 10:29:04;;;;;;;2.80;2.10;;;;;;;;;;107416;1249;61202;-81
2023/07/29 10:31:31;;;;;;;2.60;2.00;;;;;;;;;;107389;1249;61340;-81
2023/07/29 10:33:57;;;;;;;3.50;2.60;;;;;;;;;;107372;1253;61320;-81
2023/07/29 10:36:24;;;;;;;8.50;5.90;;;;;;;;;;107354;1250;61358;-81
2023/07/29 10:38:50;;;;;;;2.70;1.80;;;;;;;;;;107368;1253;61410;-81
2023/07/29 10:41:17;;;;;;;3.80;2.30;;;;;;;;;;107387;1250;61260;-81
2023/07/29 10:43:43;;;;;;;4.60;3.00;;;;;;;;;;107300;1249;61344;-81
2023/07/29 10:46:19;;;;;;;3.90;2.80;;;;;;;;;;107441;1250;61255;-81
2023/07/29 10:48:56;;;;;;;3.00;2.40;;;;;;;;;;107319;1254;61266;-81
2023/07/29 10:51:26;;;;;;;5.00;2.50;;;;;;;;;;107333;1250;61148;-81
2023/07/29 10:53:53;;;;;;;5.20;2.80;;;;;;;;;;107434;1250;61341;-80
2023/07/29 10:56:32;;;;;;;3.30;2.40;;;;;;;;;;107358;1249;61349;-81
2023/07/29 10:58:59;;;;;;;2.90;1.90;;;;;;;;;;107477;1249;61344;-81
2023/07/29 11:01:28;;;;;;;2.50;1.80;;;;;;;;;;107434;1250;61366;-81
2023/07/29 11:04:01;;;;;;;5.90;2.60;;;;;;;;;;107478;1250;61238;-81
2023/07/29 11:06:27;;;;;;;3.70;3.20;;;;;;;;;;107360;1250;60125;-81
2023/07/29 11:08:54;;;;;;;3.20;2.30;;;;;;;;;;107669;1249;61288;-81
2023/07/29 11:11:20;;;;;;;3.70;1.80;;;;;;;;;;107334;1254;61602;-80
2023/07/29 11:13:46;;;;;;;2.90;1.80;;;;;;;;;;108181;1249;61151;-81
2023/07/29 11:16:14;;;;;;;2.60;1.40;;;;;;;;;;108742;1250;59759;-81
2023/07/29 11:18:41;;;;;;;4.70;1.80;;;;;;;;;;107656;1250;61229;-81
2023/07/29 11:21:08;;;;;;;2.70;1.90;;;;;;;;;;107658;1254;61271;-81
2023/07/29 11:23:36;;;;;;;3.50;1.60;;;;;;;;;;107641;1250;61344;-81
2023/07/29 11:26:02;;;;;;;3.30;1.90;;;;;;;;;;107562;1249;61176;-81
2023/07/29 11:28:29;;;;;;;2.40;1.40;;;;;;;;;;107547;1249;61261;-81
2023/07/29 11:30:55;;;;;;;1.50;1.30;;;;;;;;;;107505;1251;61173;-81
2023/07/29 11:33:23;;;;;;;2.20;1.50;;;;;;;;;;107423;1249;61339;-81
2023/07/29 11:35:49;;;;;;;1.60;1.30;;;;;;;;;;107412;1250;61231;-81
2023/07/29 11:38:18;;;;;;;3.20;1.40;;;;;;;;;;107416;1255;61368;-81
2023/07/29 11:40:53;;;;;;;7.40;3.00;;;;;;;;;;107417;1251;61201;-82
2023/07/29 11:43:20;;;;;;;3.10;1.70;;;;;;;;;;107399;1250;61215;-82
2023/07/29 11:45:46;;;;;;;1.80;1.20;;;;;;;;;;107747;1253;62204;-82
2023/07/29 11:48:12;;;;;;;3.20;2.10;;;;;;;;;;107406;1250;61231;-82
2023/07/29 11:50:39;;;;;;;6.40;2.80;;;;;;;;;;107329;1249;61237;-82
2023/07/29 11:53:05;;;;;;;3.10;1.20;;;;;;;;;;107389;1250;59959;-82
2023/07/29 11:55:31;;;;;;;3.30;2.00;;;;;;;;;;107406;1249;61253;-82
2023/07/29 11:57:58;;;;;;;1.90;1.40;;;;;;;;;;107383;1250;62769;-81
2023/07/29 12:00:25;;;;;;;2.60;1.60;;;;;;;;;;107449;1250;61341;-82
2023/07/29 12:02:51;;;;;;;7.60;4.20;;;;;;;;;;107324;1249;61113;-82
2023/07/29 12:05:18;;;;;;;3.40;2.10;;;;;;;;;;107380;1249;61195;-82
2023/07/29 12:07:44;;;;;;;2.70;1.10;;;;;;;;;;107432;1254;61301;-83
2023/07/29 12:10:10;;;;;;;2.00;1.40;;;;;;;;;;107968;1250;61346;-84
2023/07/29 12:12:47;;;;;;;3.90;2.30;;;;;;;;;;107336;1249;61328;-82
2023/07/29 12:15:14;;;;;;;2.00;1.40;;;;;;;;;;107374;1249;61266;-83
2023/07/29 12:17:40;;;;;;;2.10;1.20;;;;;;;;;;107336;1250;61250;-83
2023/07/29 12:20:10;;;;;;;2.20;1.60;;;;;;;;;;107337;1250;61232;-83
2023/07/29 12:22:37;;;;;;;3.80;1.80;;;;;;;;;;107152;1249;61109;-83
2023/07/29 12:25:04;;;;;;;3.40;2.50;;;;;;;;;;107254;1251;61334;-83
2023/07/29 12:27:30;;;;;;;2.60;1.50;;;;;;;;;;107193;1249;61314;-82
2023/07/29 12:29:58;;;;;;;2.40;1.40;;;;;;;;;;107212;1249;61211;-83
2023/07/29 12:32:26;;;;;;;2.80;1.90;;;;;;;;;;107260;1250;61239;-83
2023/07/29 12:34:53;;;;;;;2.00;1.50;;;;;;;;;;107330;1249;61215;-81
2023/07/29 12:37:19;;;;;;;3.40;2.30;;;;;;;;;;107183;1250;61368;-82
2023/07/29 12:39:45;;;;;;;3.60;2.40;;;;;;;;;;107318;1254;61334;-82
2023/07/29 12:42:12;;;;;;;3.40;2.90;;;;;;;;;;107547;1250;61236;-82
2023/07/29 12:44:38;;;;;;;8.40;6.80;;;;;;;;;;107379;1252;61155;-82
2023/07/29 12:47:05;;;;;;;6.30;5.40;;;;;;;;;;107343;1250;61346;-82
2023/07/29 12:49:31;;;;;;;5.10;2.80;;;;;;;;;;107505;1249;61251;-82
2023/07/29 12:51:58;;;;;;;2.30;1.60;;;;;;;;;;107368;1250;61290;-81
2023/07/29 12:54:25;;;;;;;4.60;1.80;;;;;;;;;;107317;1250;61170;-81
2023/07/29 12:56:51;;;;;;;3.60;2.80;;;;;;;;;;107253;1250;61224;-82
2023/07/29 12:59:17;;;;;;;9.20;8.20;;;;;;;;;;107291;1250;61343;-82
2023/07/29 13:01:44;;;;;;;3.70;3.20;;;;;;;;;;107219;1255;61363;-82
2023/07/29 13:04:10;;;;;;;3.20;2.40;;;;;;;;;;107207;1254;61610;-81
2023/07/29 13:06:37;;;;;;;3.90;2.40;;;;;;;;;;107230;1250;61350;-82
2023/07/29 13:09:05;;;;;;;7.30;5.30;;;;;;;;;;107226;1249;60651;-81
2023/07/29 13:11:32;;;;;;;4.70;2.90;;;;;;;;;;107292;1250;61219;-81
2023/07/29 13:14:00;;;;;;;4.30;2.40;;;;;;;;;;107339;1253;61135;-83
2023/07/29 13:16:27;;;;;;;2.70;1.90;;;;;;;;;;107277;1250;61222;-82
2023/07/29 13:18:53;;;;;;;8.40;7.10;;;;;;;;;;107215;1250;61627;-82
2023/07/29 13:21:20;;;;;;;2.10;1.50;;;;;;;;;;107533;1253;63505;-82
2023/07/29 13:23:46;;;;;;;4.90;1.90;;;;;;;;;;107454;1253;61250;-82
2023/07/29 13:26:12;;;;;;;2.50;1.70;;;;;;;;;;107274;1251;61809;-82
2023/07/29 13:28:39;;;;;;;2.20;1.70;;;;;;;;;;107320;1251;61240;-82
2023/07/29 13:31:05;;;;;;;2.10;1.40;;;;;;;;;;107345;1253;61320;-83
2023/07/29 13:33:33;;;;;;;3.50;1.80;;;;;;;;;;107283;1249;61254;-82
2023/07/29 13:36:02;;;;;;;4.20;2.00;;;;;;;;;;107454;1250;61120;-82
2023/07/29 13:38:29;;;;;;;2.30;1.70;;;;;;;;;;107218;1249;61198;-81
2023/07/29 13:40:55;;;;;;;2.20;1.80;;;;;;;;;;107282;1251;61192;-83
2023/07/29 13:43:22;;;;;;;2.70;1.80;;;;;;;;;;107344;1253;61229;-82
2023/07/29 13:45:49;;;;;;;3.60;1.30;;;;;;;;;;107261;1251;61206;-82
2023/07/29 13:48:16;;;;;;;1.70;1.10;;;;;;;;;;107300;1250;61237;-82
2023/07/29 13:50:43;;;;;;;3.60;1.60;;;;;;;;;;107318;1251;61314;-82
2023/07/29 13:53:10;;;;;;;3.20;1.30;;;;;;;;;;107304;1251;61497;-83
2023/07/29 13:55:37;;;;;;;2.00;1.40;;;;;;;;;;107323;1250;61453;-83
2023/07/29 13:58:03;;;;;;;1.60;1.20;;;;;;;;;;107290;1251;61346;-83
2023/07/29 14:00:29;;;;;;;3.80;1.20;;;;;;;;;;107253;1249;61392;-83
2023/07/29 14:02:56;;;;;;;1.80;1.30;;;;;;;;;;107197;1254;61367;-82
2023/07/29 14:05:22;;;;;;;2.00;1.00;;;;;;;;;;107249;1250;61261;-83
2023/07/29 14:07:48;;;;;;;3.70;1.70;;;;;;;;;;107281;1250;61272;-82
2023/07/29 14:10:15;;;;;;;2.10;1.40;;;;;;;;;;107103;1250;61335;-82
2023/07/29 14:12:41;;;;;;;2.60;1.90;;;;;;;;;;107060;1250;61374;-82
2023/07/29 14:15:08;;;;;;;2.40;1.70;;;;;;;;;;107363;1253;61246;-82
2023/07/29 14:17:34;;;;;;;4.00;1.70;;;;;;;;;;107376;1250;61361;-82
2023/07/29 14:20:01;;;;;;;3.80;1.70;;;;;;;;;;107372;1250;61429;-82
2023/07/29 14:22:27;;;;;;;2.70;1.70;;;;;;;;;;107407;1250;59579;-82
2023/07/29 14:24:53;;;;;;;4.80;2.10;;;;;;;;;;107425;1250;61324;-82
2023/07/29 14:27:20;;;;;;;4.10;2.10;;;;;;;;;;107377;1253;61252;-82